Washington, DC

6:59 AM EST on November 20, 2017 (GMT -0500)
Logan Circle | | Change Station

Elev 108 ft 38.91 °N, 77.03 °W | Updated 5 seconds ago

Clear
Clear
38.1 °F
Feels Like 36 °F
N
3.6
Wind Variable Wind from West
Gusts 7.4 mph

Today
High -- | Low -- °F
--% Chance of Precip.
Yesterday
High -- | Low -- °F
Precip. -- in
Pressure 30.15 in
Visibility 10.0 miles
Clouds Few 5500 ft
Few 20000 ft
Windchill 36 °F
Dew Point 22 °F
Humidity 52%
Rainfall 0.00 in
Snow Depth Not available.
6:56 AM 4:50 PM
Waxing Crescent, 4% visible
METAR KDCA 201152Z 29008KT 10SM FEW055 FEW200 04/M07 A3015 RMK AO2 SLP210 T00391067 10067 20039 51028
Pressure 30.15 in
Visibility 10.0 miles
Clouds Few 5500 ft
Few 20000 ft
Windchill 36 °F
Dew Point 22 °F
Humidity 52%
Rainfall 0.00 in
Snow Depth Not available.
6:56 AM 4:50 PM
Waxing Crescent, 4% visible
METAR KDCA 201152Z 29008KT 10SM FEW055 FEW200 04/M07 A3015 RMK AO2 SLP210 T00391067 10067 20039 51028

Get Severe Weather Alerts

Thanks for signing up!

Be on the lookout for a verification email in your inbox.

You'll start receiving the daily forecast at 6 AM.

×

10-Day Weather Forecast

Almanac

Astronomy

Nov. 20, 2017 Rise Set
Actual Time
Civil Twilight
Nautical Twilight
Astronomical Twilight
Moon
Length of Visible Light
Length of Day
Tomorrow will be .
, % of the Moon is Illuminated

Today's Extremes

State Highs State Lows

Community

WunderPhotos

Category 6

Welcome to Category 6. This is the collective home for Weather Underground's featured writeups by Dr. Jeff Masters (right), Bob Henson (left), Chris Burt, and other regular contributors.

Nearby

Air Quality

  Air Quality AQ Index Pollutant
Not available.

Snow Depth

Station Depth Elevation

Earthquake Activity

City Distance Mag. Time & Date
Minimum magnitude displayed is 2.5.

Coastal Water Temperatures

Place Temperature

Stations

Nearby Weather Stations

Station Location Temp. Windchill Dew Point Humidity Wind Precip. Elev Updated Type
                   

Watches & Warnings

There are currently no watches in effect.